sensor_id;sensor_type;location;lat;lon;timestamp;P1;durP1;ratioP1;P2;durP2;ratioP2
21488;SDS011;10906;45.194;5.684;2022-12-20T06:02:38;4.18;;;2.63;;
21488;SDS011;10906;45.194;5.684;2022-12-20T06:05:22;3.28;;;2.40;;
21488;SDS011;10906;45.194;5.684;2022-12-20T06:08:07;3.47;;;2.28;;
21488;SDS011;10906;45.194;5.684;2022-12-20T06:10:55;5.60;;;2.20;;
21488;SDS011;10906;45.194;5.684;2022-12-20T06:13:43;4.03;;;2.70;;
21488;SDS011;10906;45.194;5.684;2022-12-20T06:16:30;4.80;;;3.03;;
21488;SDS011;10906;45.194;5.684;2022-12-20T06:19:17;4.95;;;3.00;;
21488;SDS011;10906;45.194;5.684;2022-12-20T06:22:09;6.93;;;3.45;;
21488;SDS011;10906;45.194;5.684;2022-12-20T06:24:56;4.75;;;2.92;;
21488;SDS011;10906;45.194;5.684;2022-12-20T06:27:48;8.18;;;4.07;;
21488;SDS011;10906;45.194;5.684;2022-12-20T06:30:36;5.65;;;3.10;;
21488;SDS011;10906;45.194;5.684;2022-12-20T06:33:30;16.15;;;8.45;;
21488;SDS011;10906;45.194;5.684;2022-12-20T06:36:17;6.75;;;3.83;;
21488;SDS011;10906;45.194;5.684;2022-12-20T06:39:02;5.45;;;3.22;;
21488;SDS011;10906;45.194;5.684;2022-12-20T06:41:56;7.35;;;3.58;;
21488;SDS011;10906;45.194;5.684;2022-12-20T06:44:41;8.35;;;6.82;;
21488;SDS011;10906;45.194;5.684;2022-12-20T06:47:32;6.80;;;3.17;;
21488;SDS011;10906;45.194;5.684;2022-12-20T06:50:17;7.40;;;3.17;;
21488;SDS011;10906;45.194;5.684;2022-12-20T06:53:01;5.93;;;3.00;;
21488;SDS011;10906;45.194;5.684;2022-12-20T06:55:46;6.93;;;3.58;;
21488;SDS011;10906;45.194;5.684;2022-12-20T06:58:32;7.80;;;3.65;;
21488;SDS011;10906;45.194;5.684;2022-12-20T07:01:17;5.75;;;3.13;;
21488;SDS011;10906;45.194;5.684;2022-12-20T07:04:01;5.38;;;3.17;;
21488;SDS011;10906;45.194;5.684;2022-12-20T07:06:46;4.45;;;3.03;;
21488;SDS011;10906;45.194;5.684;2022-12-20T07:09:30;5.50;;;2.92;;
21488;SDS011;10906;45.194;5.684;2022-12-20T07:12:15;6.57;;;3.67;;
21488;SDS011;10906;45.194;5.684;2022-12-20T07:15:00;5.82;;;2.88;;
21488;SDS011;10906;45.194;5.684;2022-12-20T07:17:45;8.85;;;3.30;;
21488;SDS011;10906;45.194;5.684;2022-12-20T07:20:29;4.97;;;3.13;;
21488;SDS011;10906;45.194;5.684;2022-12-20T07:23:14;7.35;;;3.15;;
21488;SDS011;10906;45.194;5.684;2022-12-20T07:25:59;5.10;;;3.05;;
21488;SDS011;10906;45.194;5.684;2022-12-20T07:28:44;6.80;;;3.00;;
21488;SDS011;10906;45.194;5.684;2022-12-20T07:31:28;7.47;;;3.53;;
21488;SDS011;10906;45.194;5.684;2022-12-20T07:34:12;6.25;;;2.85;;
21488;SDS011;10906;45.194;5.684;2022-12-20T07:36:57;7.10;;;3.00;;
21488;SDS011;10906;45.194;5.684;2022-12-20T07:39:42;6.38;;;2.85;;
21488;SDS011;10906;45.194;5.684;2022-12-20T07:42:26;6.35;;;2.78;;
21488;SDS011;10906;45.194;5.684;2022-12-20T07:45:10;7.35;;;3.70;;
21488;SDS011;10906;45.194;5.684;2022-12-20T07:47:55;7.57;;;3.60;;
21488;SDS011;10906;45.194;5.684;2022-12-20T07:50:40;5.85;;;3.10;;
21488;SDS011;10906;45.194;5.684;2022-12-20T07:53:25;6.32;;;3.40;;
21488;SDS011;10906;45.194;5.684;2022-12-20T07:56:12;6.97;;;3.63;;
21488;SDS011;10906;45.194;5.684;2022-12-20T07:58:57;5.47;;;3.33;;
21488;SDS011;10906;45.194;5.684;2022-12-20T08:01:44;5.90;;;3.90;;
21488;SDS011;10906;45.194;5.684;2022-12-20T08:04:29;4.43;;;3.08;;
21488;SDS011;10906;45.194;5.684;2022-12-20T08:07:14;7.70;;;3.63;;
21488;SDS011;10906;45.194;5.684;2022-12-20T08:09:59;7.78;;;3.70;;
21488;SDS011;10906;45.194;5.684;2022-12-20T08:12:43;4.38;;;3.08;;
21488;SDS011;10906;45.194;5.684;2022-12-20T08:15:30;11.38;;;4.03;;
21488;SDS011;10906;45.194;5.684;2022-12-20T08:18:16;8.82;;;4.10;;
21488;SDS011;10906;45.194;5.684;2022-12-20T08:21:00;6.88;;;3.75;;
21488;SDS011;10906;45.194;5.684;2022-12-20T08:23:44;7.10;;;3.75;;
21488;SDS011;10906;45.194;5.684;2022-12-20T08:26:29;5.35;;;3.47;;
21488;SDS011;10906;45.194;5.684;2022-12-20T08:29:13;13.43;;;3.67;;
21488;SDS011;10906;45.194;5.684;2022-12-20T08:31:57;7.40;;;3.85;;
21488;SDS011;10906;45.194;5.684;2022-12-20T08:34:41;12.80;;;3.90;;
21488;SDS011;10906;45.194;5.684;2022-12-20T08:37:26;5.13;;;3.42;;
21488;SDS011;10906;45.194;5.684;2022-12-20T08:40:10;6.07;;;3.67;;
21488;SDS011;10906;45.194;5.684;2022-12-20T08:42:55;9.57;;;3.95;;
21488;SDS011;10906;45.194;5.684;2022-12-20T08:45:39;8.40;;;3.70;;
21488;SDS011;10906;45.194;5.684;2022-12-20T08:48:23;4.57;;;2.97;;
21488;SDS011;10906;45.194;5.684;2022-12-20T08:51:08;6.07;;;3.00;;
21488;SDS011;10906;45.194;5.684;2022-12-20T08:53:53;5.25;;;3.00;;
21488;SDS011;10906;45.194;5.684;2022-12-20T08:56:38;6.50;;;4.00;;
21488;SDS011;10906;45.194;5.684;2022-12-20T08:59:22;7.75;;;3.50;;
21488;SDS011;10906;45.194;5.684;2022-12-20T09:02:06;6.85;;;3.00;;
21488;SDS011;10906;45.194;5.684;2022-12-20T09:07:34;5.68;;;3.50;;
21488;SDS011;10906;45.194;5.684;2022-12-20T09:10:19;9.75;;;3.95;;
21488;SDS011;10906;45.194;5.684;2022-12-20T09:13:03;8.88;;;3.88;;
21488;SDS011;10906;45.194;5.684;2022-12-20T09:15:48;7.15;;;4.03;;
21488;SDS011;10906;45.194;5.684;2022-12-20T09:18:32;6.45;;;3.65;;
21488;SDS011;10906;45.194;5.684;2022-12-20T09:21:18;10.80;;;4.03;;
21488;SDS011;10906;45.194;5.684;2022-12-20T09:24:03;7.60;;;3.90;;
21488;SDS011;10906;45.194;5.684;2022-12-20T09:26:48;7.63;;;4.07;;
21488;SDS011;10906;45.194;5.684;2022-12-20T09:29:32;10.63;;;3.78;;
21488;SDS011;10906;45.194;5.684;2022-12-20T09:32:17;9.23;;;4.07;;
21488;SDS011;10906;45.194;5.684;2022-12-20T09:35:02;7.00;;;3.65;;
21488;SDS011;10906;45.194;5.684;2022-12-20T09:37:47;9.25;;;4.00;;
21488;SDS011;10906;45.194;5.684;2022-12-20T09:43:16;10.67;;;4.93;;
21488;SDS011;10906;45.194;5.684;2022-12-20T09:46:01;8.55;;;4.68;;
21488;SDS011;10906;45.194;5.684;2022-12-20T09:48:46;12.68;;;4.63;;
21488;SDS011;10906;45.194;5.684;2022-12-20T09:51:35;5.97;;;3.22;;
21488;SDS011;10906;45.194;5.684;2022-12-20T09:54:34;5.53;;;2.63;;
21488;SDS011;10906;45.194;5.684;2022-12-20T10:00:46;4.25;;;2.75;;
21488;SDS011;10906;45.194;5.684;2022-12-20T10:03:32;6.03;;;2.10;;
21488;SDS011;10906;45.194;5.684;2022-12-20T10:09:43;5.85;;;2.08;;
21488;SDS011;10906;45.194;5.684;2022-12-20T10:12:47;3.83;;;1.45;;
21488;SDS011;10906;45.194;5.684;2022-12-20T10:22:36;3.22;;;1.50;;
21488;SDS011;10906;45.194;5.684;2022-12-20T10:25:30;2.78;;;0.70;;
21488;SDS011;10906;45.194;5.684;2022-12-20T10:28:16;2.63;;;0.98;;
21488;SDS011;10906;45.194;5.684;2022-12-20T10:31:07;1.30;;;0.77;;
21488;SDS011;10906;45.194;5.684;2022-12-20T10:33:56;5.05;;;2.20;;
21488;SDS011;10906;45.194;5.684;2022-12-20T10:36:40;5.97;;;3.80;;
21488;SDS011;10906;45.194;5.684;2022-12-20T10:39:38;8.10;;;5.13;;
21488;SDS011;10906;45.194;5.684;2022-12-20T10:42:39;1.90;;;1.20;;
21488;SDS011;10906;45.194;5.684;2022-12-20T10:45:35;1.05;;;0.77;;
21488;SDS011;10906;45.194;5.684;2022-12-20T10:48:30;2.88;;;0.80;;
21488;SDS011;10906;45.194;5.684;2022-12-20T10:51:20;2.17;;;1.00;;
21488;SDS011;10906;45.194;5.684;2022-12-20T10:54:10;2.80;;;0.82;;
21488;SDS011;10906;45.194;5.684;2022-12-20T10:57:18;3.53;;;0.82;;
21488;SDS011;10906;45.194;5.684;2022-12-20T11:00:05;5.07;;;0.90;;
21488;SDS011;10906;45.194;5.684;2022-12-20T11:06:11;3.83;;;0.88;;
21488;SDS011;10906;45.194;5.684;2022-12-20T11:12:08;4.72;;;0.82;;
21488;SDS011;10906;45.194;5.684;2022-12-20T11:15:09;2.08;;;0.60;;
21488;SDS011;10906;45.194;5.684;2022-12-20T11:21:09;1.45;;;0.70;;
21488;SDS011;10906;45.194;5.684;2022-12-20T11:33:01;3.92;;;0.65;;
21488;SDS011;10906;45.194;5.684;2022-12-20T11:39:13;1.73;;;0.70;;
21488;SDS011;10906;45.194;5.684;2022-12-20T11:42:19;2.92;;;0.80;;
21488;SDS011;10906;45.194;5.684;2022-12-20T11:45:11;1.45;;;0.85;;
21488;SDS011;10906;45.194;5.684;2022-12-20T11:51:23;1.63;;;0.70;;
21488;SDS011;10906;45.194;5.684;2022-12-20T11:54:25;2.45;;;0.70;;
21488;SDS011;10906;45.194;5.684;2022-12-20T11:57:23;1.58;;;0.82;;
21488;SDS011;10906;45.194;5.684;2022-12-20T12:00:13;2.00;;;0.80;;
21488;SDS011;10906;45.194;5.684;2022-12-20T12:03:00;1.92;;;0.70;;
21488;SDS011;10906;45.194;5.684;2022-12-20T12:06:06;3.58;;;0.70;;
21488;SDS011;10906;45.194;5.684;2022-12-20T12:11:53;4.15;;;0.82;;
21488;SDS011;10906;45.194;5.684;2022-12-20T12:18:16;1.90;;;0.70;;
21488;SDS011;10906;45.194;5.684;2022-12-20T12:27:20;1.60;;;0.82;;
21488;SDS011;10906;45.194;5.684;2022-12-20T12:30:10;1.35;;;0.60;;
21488;SDS011;10906;45.194;5.684;2022-12-20T12:33:02;5.65;;;0.70;;
21488;SDS011;10906;45.194;5.684;2022-12-20T12:36:05;1.98;;;0.77;;
21488;SDS011;10906;45.194;5.684;2022-12-20T12:39:13;1.85;;;0.60;;
21488;SDS011;10906;45.194;5.684;2022-12-20T12:44:54;3.63;;;0.70;;
21488;SDS011;10906;45.194;5.684;2022-12-20T12:47:43;5.85;;;0.73;;
21488;SDS011;10906;45.194;5.684;2022-12-20T12:50:31;2.67;;;0.68;;
21488;SDS011;10906;45.194;5.684;2022-12-20T12:53:33;2.80;;;0.80;;
21488;SDS011;10906;45.194;5.684;2022-12-20T13:04:54;3.25;;;0.80;;
21488;SDS011;10906;45.194;5.684;2022-12-20T13:07:51;3.22;;;0.80;;
21488;SDS011;10906;45.194;5.684;2022-12-20T13:18:56;2.08;;;0.70;;
21488;SDS011;10906;45.194;5.684;2022-12-20T13:27:38;1.98;;;0.80;;
21488;SDS011;10906;45.194;5.684;2022-12-20T13:30:24;1.98;;;0.88;;
21488;SDS011;10906;45.194;5.684;2022-12-20T13:33:15;2.53;;;0.65;;
21488;SDS011;10906;45.194;5.684;2022-12-20T13:36:28;2.95;;;0.80;;
21488;SDS011;10906;45.194;5.684;2022-12-20T13:42:15;3.97;;;1.00;;
21488;SDS011;10906;45.194;5.684;2022-12-20T13:45:21;2.13;;;0.90;;
21488;SDS011;10906;45.194;5.684;2022-12-20T13:48:05;1.10;;;0.60;;
21488;SDS011;10906;45.194;5.684;2022-12-20T13:50:55;3.72;;;0.80;;
21488;SDS011;10906;45.194;5.684;2022-12-20T13:53:40;1.65;;;0.68;;
21488;SDS011;10906;45.194;5.684;2022-12-20T13:56:46;2.05;;;0.80;;
21488;SDS011;10906;45.194;5.684;2022-12-20T13:59:32;2.70;;;0.80;;
21488;SDS011;10906;45.194;5.684;2022-12-20T14:02:39;1.67;;;0.73;;
21488;SDS011;10906;45.194;5.684;2022-12-20T14:05:33;1.45;;;0.60;;
21488;SDS011;10906;45.194;5.684;2022-12-20T14:08:21;0.88;;;0.60;;
21488;SDS011;10906;45.194;5.684;2022-12-20T14:11:14;2.85;;;0.70;;
21488;SDS011;10906;45.194;5.684;2022-12-20T14:14:01;1.35;;;0.90;;
21488;SDS011;10906;45.194;5.684;2022-12-20T14:16:47;1.88;;;0.60;;
21488;SDS011;10906;45.194;5.684;2022-12-20T14:19:31;0.98;;;0.60;;
21488;SDS011;10906;45.194;5.684;2022-12-20T14:22:15;3.50;;;1.02;;
21488;SDS011;10906;45.194;5.684;2022-12-20T14:25:00;1.70;;;0.77;;
21488;SDS011;10906;45.194;5.684;2022-12-20T14:27:48;3.47;;;0.95;;
21488;SDS011;10906;45.194;5.684;2022-12-20T14:30:40;2.40;;;0.65;;
21488;SDS011;10906;45.194;5.684;2022-12-20T14:33:28;1.20;;;0.75;;
21488;SDS011;10906;45.194;5.684;2022-12-20T14:39:09;1.10;;;0.63;;
21488;SDS011;10906;45.194;5.684;2022-12-20T14:45:00;1.83;;;0.77;;
21488;SDS011;10906;45.194;5.684;2022-12-20T14:50:38;1.35;;;0.70;;
21488;SDS011;10906;45.194;5.684;2022-12-20T14:53:26;3.35;;;0.88;;
21488;SDS011;10906;45.194;5.684;2022-12-20T14:56:13;3.03;;;0.60;;
21488;SDS011;10906;45.194;5.684;2022-12-20T14:59:02;3.17;;;1.65;;
21488;SDS011;10906;45.194;5.684;2022-12-20T15:01:56;2.17;;;0.95;;
21488;SDS011;10906;45.194;5.684;2022-12-20T15:04:41;1.73;;;0.82;;
21488;SDS011;10906;45.194;5.684;2022-12-20T15:07:27;1.63;;;0.73;;
21488;SDS011;10906;45.194;5.684;2022-12-20T15:10:14;1.23;;;0.90;;
21488;SDS011;10906;45.194;5.684;2022-12-20T15:12:59;2.67;;;1.02;;
21488;SDS011;10906;45.194;5.684;2022-12-20T15:15:43;1.60;;;0.77;;
21488;SDS011;10906;45.194;5.684;2022-12-20T15:18:28;1.38;;;0.82;;
21488;SDS011;10906;45.194;5.684;2022-12-20T15:21:14;8.90;;;5.93;;
21488;SDS011;10906;45.194;5.684;2022-12-20T15:24:19;3.33;;;0.90;;
21488;SDS011;10906;45.194;5.684;2022-12-20T15:27:10;1.70;;;0.93;;
21488;SDS011;10906;45.194;5.684;2022-12-20T15:29:56;1.58;;;0.75;;
21488;SDS011;10906;45.194;5.684;2022-12-20T15:32:41;2.47;;;0.77;;
21488;SDS011;10906;45.194;5.684;2022-12-20T15:35:26;2.83;;;0.90;;
21488;SDS011;10906;45.194;5.684;2022-12-20T15:38:13;4.25;;;0.80;;
21488;SDS011;10906;45.194;5.684;2022-12-20T15:41:01;2.78;;;0.75;;
21488;SDS011;10906;45.194;5.684;2022-12-20T15:43:49;1.48;;;0.77;;
21488;SDS011;10906;45.194;5.684;2022-12-20T15:46:36;1.75;;;0.90;;
21488;SDS011;10906;45.194;5.684;2022-12-20T15:49:21;1.45;;;0.70;;
21488;SDS011;10906;45.194;5.684;2022-12-20T15:52:09;3.15;;;0.77;;
21488;SDS011;10906;45.194;5.684;2022-12-20T15:55:01;1.00;;;0.60;;
21488;SDS011;10906;45.194;5.684;2022-12-20T15:57:46;0.90;;;0.80;;
21488;SDS011;10906;45.194;5.684;2022-12-20T16:00:31;2.08;;;1.00;;
21488;SDS011;10906;45.194;5.684;2022-12-20T16:03:22;2.83;;;1.05;;
21488;SDS011;10906;45.194;5.684;2022-12-20T16:06:09;1.10;;;0.80;;
21488;SDS011;10906;45.194;5.684;2022-12-20T16:08:55;3.20;;;1.10;;
21488;SDS011;10906;45.194;5.684;2022-12-20T16:11:40;1.35;;;0.80;;
21488;SDS011;10906;45.194;5.684;2022-12-20T16:14:25;2.38;;;1.13;;
21488;SDS011;10906;45.194;5.684;2022-12-20T16:17:14;2.45;;;1.42;;
21488;SDS011;10906;45.194;5.684;2022-12-20T16:19:58;2.83;;;1.00;;
21488;SDS011;10906;45.194;5.684;2022-12-20T16:22:43;3.13;;;0.85;;
21488;SDS011;10906;45.194;5.684;2022-12-20T16:25:30;2.08;;;0.90;;
21488;SDS011;10906;45.194;5.684;2022-12-20T16:28:16;1.75;;;0.90;;
21488;SDS011;10906;45.194;5.684;2022-12-20T16:31:08;2.97;;;0.80;;
21488;SDS011;10906;45.194;5.684;2022-12-20T16:33:54;2.38;;;1.30;;
21488;SDS011;10906;45.194;5.684;2022-12-20T16:36:39;2.65;;;1.10;;
21488;SDS011;10906;45.194;5.684;2022-12-20T16:39:23;4.43;;;1.05;;
21488;SDS011;10906;45.194;5.684;2022-12-20T16:45:12;2.70;;;1.00;;
21488;SDS011;10906;45.194;5.684;2022-12-20T16:48:02;2.00;;;1.40;;
21488;SDS011;10906;45.194;5.684;2022-12-20T16:50:47;2.28;;;1.38;;
21488;SDS011;10906;45.194;5.684;2022-12-20T16:53:31;1.80;;;1.20;;
21488;SDS011;10906;45.194;5.684;2022-12-20T16:56:16;1.33;;;0.90;;
21488;SDS011;10906;45.194;5.684;2022-12-20T16:59:00;1.75;;;0.90;;
21488;SDS011;10906;45.194;5.684;2022-12-20T17:01:45;1.83;;;0.75;;
21488;SDS011;10906;45.194;5.684;2022-12-20T17:04:29;2.03;;;1.50;;
21488;SDS011;10906;45.194;5.684;2022-12-20T17:07:13;2.80;;;1.00;;
21488;SDS011;10906;45.194;5.684;2022-12-20T17:09:59;3.20;;;1.25;;
21488;SDS011;10906;45.194;5.684;2022-12-20T17:12:43;2.30;;;1.00;;
21488;SDS011;10906;45.194;5.684;2022-12-20T17:15:29;2.88;;;1.00;;
21488;SDS011;10906;45.194;5.684;2022-12-20T17:18:17;4.35;;;1.10;;
21488;SDS011;10906;45.194;5.684;2022-12-20T17:21:02;2.33;;;1.02;;
21488;SDS011;10906;45.194;5.684;2022-12-20T17:24:00;5.05;;;1.30;;
21488;SDS011;10906;45.194;5.684;2022-12-20T17:26:46;6.13;;;2.30;;
21488;SDS011;10906;45.194;5.684;2022-12-20T17:29:31;2.65;;;1.10;;
21488;SDS011;10906;45.194;5.684;2022-12-20T17:32:17;4.05;;;1.35;;
21488;SDS011;10906;45.194;5.684;2022-12-20T17:35:03;3.72;;;1.60;;
21488;SDS011;10906;45.194;5.684;2022-12-20T17:37:51;3.65;;;1.20;;
21488;SDS011;10906;45.194;5.684;2022-12-20T17:40:38;2.20;;;0.95;;
21488;SDS011;10906;45.194;5.684;2022-12-20T17:43:22;1.70;;;0.90;;
21488;SDS011;10906;45.194;5.684;2022-12-20T17:46:06;1.85;;;0.80;;
21488;SDS011;10906;45.194;5.684;2022-12-20T17:48:51;1.83;;;0.93;;
21488;SDS011;10906;45.194;5.684;2022-12-20T17:51:35;4.80;;;1.00;;
21488;SDS011;10906;45.194;5.684;2022-12-20T17:54:21;2.50;;;1.25;;
21488;SDS011;10906;45.194;5.684;2022-12-20T17:57:14;2.88;;;1.05;;
21488;SDS011;10906;45.194;5.684;2022-12-20T17:59:58;5.05;;;2.35;;
21488;SDS011;10906;45.194;5.684;2022-12-20T18:02:43;26.73;;;17.23;;
21488;SDS011;10906;45.194;5.684;2022-12-20T18:05:27;30.27;;;20.25;;
21488;SDS011;10906;45.194;5.684;2022-12-20T18:10:56;3.35;;;1.95;;
21488;SDS011;10906;45.194;5.684;2022-12-20T18:13:41;3.97;;;2.28;;
21488;SDS011;10906;45.194;5.684;2022-12-20T18:16:28;19.02;;;13.88;;
21488;SDS011;10906;45.194;5.684;2022-12-20T18:19:15;12.93;;;9.13;;
21488;SDS011;10906;45.194;5.684;2022-12-20T18:22:00;3.85;;;2.10;;
21488;SDS011;10906;45.194;5.684;2022-12-20T18:24:47;6.88;;;4.03;;
21488;SDS011;10906;45.194;5.684;2022-12-20T18:27:34;4.68;;;3.38;;
21488;SDS011;10906;45.194;5.684;2022-12-20T18:30:20;3.95;;;2.65;;
21488;SDS011;10906;45.194;5.684;2022-12-20T18:33:04;4.10;;;2.25;;
21488;SDS011;10906;45.194;5.684;2022-12-20T18:35:49;4.78;;;3.95;;
21488;SDS011;10906;45.194;5.684;2022-12-20T18:38:34;2.03;;;0.90;;
21488;SDS011;10906;45.194;5.684;2022-12-20T18:41:20;1.98;;;0.75;;
21488;SDS011;10906;45.194;5.684;2022-12-20T18:44:08;3.85;;;1.40;;
21488;SDS011;10906;45.194;5.684;2022-12-20T18:46:53;2.80;;;1.48;;
21488;SDS011;10906;45.194;5.684;2022-12-20T18:49:38;4.60;;;2.00;;
21488;SDS011;10906;45.194;5.684;2022-12-20T18:52:23;4.38;;;1.75;;
21488;SDS011;10906;45.194;5.684;2022-12-20T18:55:07;4.25;;;1.83;;
21488;SDS011;10906;45.194;5.684;2022-12-20T18:57:53;3.75;;;2.25;;
21488;SDS011;10906;45.194;5.684;2022-12-20T19:00:38;5.15;;;2.83;;
21488;SDS011;10906;45.194;5.684;2022-12-20T19:03:22;5.57;;;2.60;;
21488;SDS011;10906;45.194;5.684;2022-12-20T19:06:08;5.45;;;2.50;;
21488;SDS011;10906;45.194;5.684;2022-12-20T19:08:53;4.40;;;2.28;;
21488;SDS011;10906;45.194;5.684;2022-12-20T19:11:37;5.53;;;2.00;;
21488;SDS011;10906;45.194;5.684;2022-12-20T19:14:22;4.68;;;2.28;;
21488;SDS011;10906;45.194;5.684;2022-12-20T19:17:07;4.60;;;1.50;;
21488;SDS011;10906;45.194;5.684;2022-12-20T19:19:51;3.40;;;1.85;;
21488;SDS011;10906;45.194;5.684;2022-12-20T19:22:36;3.22;;;2.10;;
21488;SDS011;10906;45.194;5.684;2022-12-20T19:25:21;4.00;;;2.30;;
21488;SDS011;10906;45.194;5.684;2022-12-20T19:28:05;4.88;;;2.10;;
21488;SDS011;10906;45.194;5.684;2022-12-20T19:30:49;3.70;;;1.98;;
21488;SDS011;10906;45.194;5.684;2022-12-20T19:33:37;8.02;;;2.65;;
21488;SDS011;10906;45.194;5.684;2022-12-20T19:36:23;4.88;;;2.50;;
21488;SDS011;10906;45.194;5.684;2022-12-20T19:39:11;4.28;;;1.92;;
21488;SDS011;10906;45.194;5.684;2022-12-20T19:42:00;8.68;;;2.30;;
21488;SDS011;10906;45.194;5.684;2022-12-20T19:44:44;5.05;;;2.25;;
21488;SDS011;10906;45.194;5.684;2022-12-20T19:47:32;5.32;;;2.70;;
21488;SDS011;10906;45.194;5.684;2022-12-20T19:50:16;3.78;;;2.30;;
21488;SDS011;10906;45.194;5.684;2022-12-20T19:53:01;3.65;;;1.48;;
21488;SDS011;10906;45.194;5.684;2022-12-20T19:55:50;3.10;;;0.80;;
21488;SDS011;10906;45.194;5.684;2022-12-20T19:58:36;1.67;;;0.73;;
21488;SDS011;10906;45.194;5.684;2022-12-20T20:01:21;2.72;;;0.98;;
21488;SDS011;10906;45.194;5.684;2022-12-20T20:04:08;2.65;;;0.90;;
21488;SDS011;10906;45.194;5.684;2022-12-20T20:06:52;3.05;;;1.00;;
21488;SDS011;10906;45.194;5.684;2022-12-20T20:09:36;2.50;;;0.77;;
21488;SDS011;10906;45.194;5.684;2022-12-20T20:12:21;3.83;;;1.02;;
21488;SDS011;10906;45.194;5.684;2022-12-20T20:15:08;1.80;;;0.77;;
21488;SDS011;10906;45.194;5.684;2022-12-20T20:17:53;3.28;;;0.90;;
21488;SDS011;10906;45.194;5.684;2022-12-20T20:20:38;3.22;;;1.20;;
21488;SDS011;10906;45.194;5.684;2022-12-20T20:23:26;2.85;;;0.90;;
21488;SDS011;10906;45.194;5.684;2022-12-20T20:26:12;2.80;;;0.85;;
21488;SDS011;10906;45.194;5.684;2022-12-20T20:29:00;2.92;;;1.17;;
21488;SDS011;10906;45.194;5.684;2022-12-20T20:31:45;5.28;;;1.85;;
21488;SDS011;10906;45.194;5.684;2022-12-20T20:34:29;5.38;;;4.63;;
21488;SDS011;10906;45.194;5.684;2022-12-20T20:37:14;3.92;;;1.25;;
21488;SDS011;10906;45.194;5.684;2022-12-20T20:39:59;2.65;;;1.17;;
21488;SDS011;10906;45.194;5.684;2022-12-20T20:42:43;3.15;;;0.70;;
21488;SDS011;10906;45.194;5.684;2022-12-20T20:45:28;3.85;;;0.90;;
21488;SDS011;10906;45.194;5.684;2022-12-20T20:48:12;2.35;;;0.90;;
21488;SDS011;10906;45.194;5.684;2022-12-20T20:50:57;1.42;;;0.80;;
21488;SDS011;10906;45.194;5.684;2022-12-20T20:53:42;5.07;;;3.00;;
21488;SDS011;10906;45.194;5.684;2022-12-20T20:56:27;8.75;;;5.47;;
21488;SDS011;10906;45.194;5.684;2022-12-20T20:59:11;4.00;;;2.33;;
21488;SDS011;10906;45.194;5.684;2022-12-20T21:01:56;4.65;;;2.42;;
21488;SDS011;10906;45.194;5.684;2022-12-20T21:04:40;4.60;;;2.78;;
21488;SDS011;10906;45.194;5.684;2022-12-20T21:07:25;8.07;;;3.30;;
21488;SDS011;10906;45.194;5.684;2022-12-20T21:10:09;5.80;;;2.40;;
21488;SDS011;10906;45.194;5.684;2022-12-20T21:12:54;6.03;;;3.53;;
21488;SDS011;10906;45.194;5.684;2022-12-20T21:15:39;6.55;;;3.30;;
21488;SDS011;10906;45.194;5.684;2022-12-20T21:18:26;7.20;;;4.03;;
21488;SDS011;10906;45.194;5.684;2022-12-20T21:21:11;6.28;;;3.63;;
21488;SDS011;10906;45.194;5.684;2022-12-20T21:23:56;7.65;;;4.68;;
21488;SDS011;10906;45.194;5.684;2022-12-20T21:26:40;7.80;;;4.22;;
21488;SDS011;10906;45.194;5.684;2022-12-20T21:29:25;10.52;;;4.93;;
21488;SDS011;10906;45.194;5.684;2022-12-20T21:32:10;7.15;;;3.85;;
21488;SDS011;10906;45.194;5.684;2022-12-20T21:34:54;7.22;;;3.75;;
21488;SDS011;10906;45.194;5.684;2022-12-20T21:37:39;7.72;;;4.40;;
21488;SDS011;10906;45.194;5.684;2022-12-20T21:40:23;7.72;;;4.40;;
21488;SDS011;10906;45.194;5.684;2022-12-20T21:43:08;11.57;;;7.05;;
21488;SDS011;10906;45.194;5.684;2022-12-20T21:45:52;14.90;;;5.85;;
21488;SDS011;10906;45.194;5.684;2022-12-20T21:48:37;10.23;;;6.10;;
21488;SDS011;10906;45.194;5.684;2022-12-20T21:51:24;8.38;;;5.30;;
21488;SDS011;10906;45.194;5.684;2022-12-20T21:54:09;11.02;;;6.70;;
21488;SDS011;10906;45.194;5.684;2022-12-20T21:56:54;14.38;;;7.00;;
21488;SDS011;10906;45.194;5.684;2022-12-20T21:59:39;12.25;;;6.93;;
21488;SDS011;10906;45.194;5.684;2022-12-20T22:02:23;9.65;;;6.07;;
21488;SDS011;10906;45.194;5.684;2022-12-20T22:05:08;10.75;;;5.78;;
21488;SDS011;10906;45.194;5.684;2022-12-20T22:07:52;7.93;;;5.53;;
21488;SDS011;10906;45.194;5.684;2022-12-20T22:10:37;10.23;;;5.43;;
21488;SDS011;10906;45.194;5.684;2022-12-20T22:13:21;8.02;;;5.32;;
21488;SDS011;10906;45.194;5.684;2022-12-20T22:16:07;10.35;;;5.80;;
21488;SDS011;10906;45.194;5.684;2022-12-20T22:18:55;11.43;;;6.15;;
21488;SDS011;10906;45.194;5.684;2022-12-20T22:21:42;11.48;;;5.88;;
21488;SDS011;10906;45.194;5.684;2022-12-20T22:24:26;9.45;;;5.00;;
21488;SDS011;10906;45.194;5.684;2022-12-20T22:27:10;7.55;;;5.20;;
21488;SDS011;10906;45.194;5.684;2022-12-20T22:29:55;10.18;;;4.70;;
21488;SDS011;10906;45.194;5.684;2022-12-20T22:32:39;9.60;;;4.95;;
21488;SDS011;10906;45.194;5.684;2022-12-20T22:35:24;8.50;;;4.45;;
21488;SDS011;10906;45.194;5.684;2022-12-20T22:38:08;7.55;;;4.65;;
21488;SDS011;10906;45.194;5.684;2022-12-20T22:40:53;8.82;;;4.63;;
21488;SDS011;10906;45.194;5.684;2022-12-20T22:43:41;9.00;;;4.85;;
21488;SDS011;10906;45.194;5.684;2022-12-20T22:46:27;9.55;;;5.30;;
21488;SDS011;10906;45.194;5.684;2022-12-20T22:49:15;9.02;;;5.05;;
21488;SDS011;10906;45.194;5.684;2022-12-20T22:52:00;8.27;;;5.35;;
21488;SDS011;10906;45.194;5.684;2022-12-20T22:54:45;11.40;;;4.55;;
21488;SDS011;10906;45.194;5.684;2022-12-20T22:57:30;10.95;;;5.53;;
